N8184G KFRG-KFRG

Flight info

Callsign N8184G
Flight time 0h 2m
Altitude VFR
Route
Aircraft C172/L-DOV/C

Departure

Time 2026-05-07 00:04
Airport Republic Airport (KFRG)

Arrival

Time 2026-05-07 00:06
Airport Republic Airport (KFRG)
Time Latitude Longitude Altitude Speed Heading
2026-05-07 00:03 40.77841 -73.41538 929 ft 88 kts 182°
2026-05-07 00:04 40.77260 -73.41537 805 ft 83 kts 181°
2026-05-07 00:04 40.76703 -73.41535 685 ft 77 kts 182°
2026-05-07 00:04 40.76196 -73.41530 599 ft 70 kts 180°
2026-05-07 00:04 40.75731 -73.41509 522 ft 65 kts 179°
2026-05-07 00:05 40.75279 -73.41488 431 ft 65 kts 180°
2026-05-07 00:05 40.74814 -73.41475 340 ft 69 kts 180°
2026-05-07 00:05 40.74333 -73.41462 252 ft 68 kts 179°
2026-05-07 00:05 40.73863 -73.41456 139 ft 65 kts 179°
2026-05-07 00:06 40.73462 -73.41456 76 ft 45 kts 176°
2026-05-07 00:06 40.73133 -73.41444 72 ft 66 kts 180°
2026-05-07 00:06 40.72588 -73.41434 217 ft 83 kts 180°
2026-05-07 00:06 40.72002 -73.41388 414 ft 89 kts 174°
2026-05-07 00:07 40.71528 -73.41016 662 ft 88 kts 95°
2026-05-07 00:07 40.71572 -73.40220 903 ft 88 kts 90°
2026-05-07 00:07 40.71617 -73.39420 1137 ft 89 kts 84°
2026-05-07 00:07 40.71666 -73.38625 1352 ft 91 kts 78°
2026-05-07 00:08 40.72132 -73.38122 1414 ft 92 kts
2026-05-07 00:08 40.72764 -73.38154 1420 ft 94 kts 358°
2026-05-07 00:08 40.73426 -73.38174 1344 ft 96 kts 358°
2026-05-07 00:08 40.74077 -73.38203 1322 ft 95 kts 357°
2026-05-07 00:09 40.74750 -73.38239 1318 ft 98 kts 356°
2026-05-07 00:09 40.75436 -73.38290 1319 ft 99 kts 356°
2026-05-07 00:09 40.76148 -73.38327 1227 ft 108 kts 359°
2026-05-07 00:09 40.76872 -73.38306 1271 ft 101 kts
2026-05-07 00:10 40.77567 -73.38320 1308 ft 98 kts 356°
2026-05-07 00:10 40.78237 -73.38467 1292 ft 100 kts 328°
2026-05-07 00:10 40.78461 -73.39256 1276 ft 100 kts 257°
2026-05-07 00:10 40.78337 -73.40141 1271 ft 100 kts 263°
2026-05-07 00:11 40.78166 -73.40995 1120 ft 99 kts 232°
2026-05-07 00:11 40.77572 -73.41354 1018 ft 95 kts 196°
2026-05-07 00:11 40.76919 -73.41530 855 ft 96 kts 188°
2026-05-07 00:11 40.76259 -73.41536 682 ft 92 kts 179°
2026-05-07 00:12 40.75640 -73.41510 513 ft 85 kts 181°
2026-05-07 00:12 40.75085 -73.41499 372 ft 75 kts 180°
2026-05-07 00:12 40.74575 -73.41483 273 ft 75 kts 180°
2026-05-07 00:12 40.74090 -73.41470 192 ft 66 kts 181°
2026-05-07 00:13 40.73633 -73.41458 89 ft 62 kts 181°
2026-05-07 00:13 40.73292 -73.41452 74 ft 47 kts 178°
2026-05-07 00:13 40.72824 -73.41436 122 ft 81 kts 179°
2026-05-07 00:13 40.72231 -73.41400 323 ft 88 kts 179°
2026-05-07 00:14 40.71740 -73.40993 526 ft 93 kts 104°
2026-05-07 00:14 40.71768 -73.40135 754 ft 94 kts 85°
2026-05-07 00:14 40.71819 -73.39269 973 ft 97 kts 86°
2026-05-07 00:14 40.71872 -73.38386 1202 ft 96 kts 86°
2026-05-07 00:15 40.71930 -73.37469 1315 ft 103 kts 84°
2026-05-07 00:15 40.72251 -73.36702 1324 ft 99 kts 29°
2026-05-07 00:15 40.72886 -73.36780 1331 ft 94 kts 329°
2026-05-07 00:15 40.73489 -73.37137 1303 ft 97 kts 351°
2026-05-07 00:16 40.74163 -73.37174 1307 ft 96 kts 357°
2026-05-07 00:16 40.74828 -73.37203 1295 ft 97 kts 358°
2026-05-07 00:16 40.75501 -73.37224 1298 ft 96 kts 358°
2026-05-07 00:16 40.76170 -73.37243 1291 ft 96 kts 358°
2026-05-07 00:17 40.76839 -73.37249 1290 ft 97 kts 359°
2026-05-07 00:17 40.77509 -73.37260 1289 ft 96 kts 359°
2026-05-07 00:17 40.78178 -73.37280 1281 ft 96 kts 356°
2026-05-07 00:17 40.78729 -73.37671 1258 ft 95 kts 288°
2026-05-07 00:18 40.78763 -73.38538 1264 ft 94 kts 266°
2026-05-07 00:18 40.78717 -73.39405 1156 ft 95 kts 266°
2026-05-07 00:18 40.78665 -73.40273 1034 ft 96 kts 266°
2026-05-07 00:18 40.78609 -73.41147 930 ft 94 kts 264°
2026-05-07 00:19 40.78258 -73.41780 811 ft 95 kts 184°
2026-05-07 00:19 40.77616 -73.41527 701 ft 94 kts 175°
2026-05-07 00:19 40.76965 -73.41540 623 ft 90 kts 180°
2026-05-07 00:19 40.76355 -73.41521 573 ft 85 kts 181°
2026-05-07 00:20 40.75770 -73.41501 491 ft 80 kts 181°
2026-05-07 00:20 40.75246 -73.41509 417 ft 71 kts 182°
2026-05-07 00:20 40.74771 -73.41484 321 ft 65 kts 180°
2026-05-07 00:20 40.74295 -73.41448 252 ft 72 kts 180°
2026-05-07 00:21 40.73791 -73.41456 162 ft 68 kts 181°
2026-05-07 00:21 40.73395 -73.41452 74 ft 44 kts 178°
2026-05-07 00:21 40.73097 -73.41444 77 ft 58 kts 179°
2026-05-07 00:21 40.72584 -73.41427 176 ft 82 kts 179°
2026-05-07 00:22 40.72008 -73.41377 408 ft 84 kts 177°
2026-05-07 00:22 40.71470 -73.41133 625 ft 89 kts 127°
2026-05-07 00:22 40.71378 -73.40358 879 ft 87 kts 88°
2026-05-07 00:22 40.71433 -73.39551 1108 ft 89 kts 83°
2026-05-07 00:23 40.71532 -73.38732 1290 ft 96 kts 81°
2026-05-07 00:23 40.71648 -73.37853 1319 ft 98 kts 81°
2026-05-07 00:23 40.71881 -73.37050 1347 ft 98 kts 43°
2026-05-07 00:23 40.72517 -73.36888 1352 ft 96 kts 344°
2026-05-07 00:24 40.73165 -73.37029 1396 ft 94 kts 356°
2026-05-07 00:24 40.73842 -73.37046 1369 ft 99 kts 358°
2026-05-07 00:24 40.74536 -73.37074 1344 ft 102 kts 358°
2026-05-07 00:24 40.75246 -73.37092 1353 ft 100 kts 358°
2026-05-07 00:25 40.75938 -73.37117 1353 ft 100 kts 358°
2026-05-07 00:25 40.76645 -73.37123 1322 ft 103 kts 360°
2026-05-07 00:25 40.77358 -73.37108 1316 ft 102 kts
2026-05-07 00:25 40.78063 -73.37114 1282 ft 99 kts 356°
2026-05-07 00:26 40.78718 -73.37263 1189 ft 94 kts 327°
2026-05-07 00:26 40.78909 -73.38017 1090 ft 90 kts 266°
2026-05-07 00:26 40.78877 -73.38817 1040 ft 86 kts 268°
2026-05-07 00:26 40.78862 -73.39606 928 ft 89 kts 269°
2026-05-07 00:27 40.78848 -73.40408 849 ft 88 kts 269°
2026-05-07 00:27 40.78733 -73.41159 828 ft 82 kts 232°
2026-05-07 00:27 40.78192 -73.41408 775 ft 89 kts 190°
2026-05-07 00:27 40.77566 -73.41493 777 ft 92 kts 184°
2026-05-07 00:28 40.76913 -73.41498 738 ft 91 kts 182°
2026-05-07 00:28 40.76320 -73.41504 631 ft 81 kts 181°
2026-05-07 00:28 40.75791 -73.41491 537 ft 73 kts 180°
2026-05-07 00:28 40.75297 -73.41480 431 ft 67 kts 182°
2026-05-07 00:29 40.74835 -73.41473 342 ft 67 kts 180°
2026-05-07 00:29 40.74368 -73.41467 250 ft 69 kts 180°
2026-05-07 00:30 40.73180 -73.41444 76 ft 26 kts 180°
2026-05-07 00:30 40.73067 -73.41425 77 ft 13 kts 115°
2026-05-07 00:30 40.73087 -73.41336 76 ft 11 kts
2026-05-07 00:30 40.73163 -73.41337 74 ft 11 kts
2026-05-07 00:31 40.73254 -73.41339 75 ft 16 kts 359°
2026-05-07 00:31 40.73375 -73.41340 76 ft 17 kts 357°
2026-05-07 00:31 40.73490 -73.41348 74 ft 16 kts 358°
2026-05-07 00:31 40.73541 -73.41301 75 ft 6 kts 24°
2026-05-07 00:32 40.73569 -73.41310 78 ft 3 kts 273°
2026-05-07 00:32 40.73568 -73.41318 73 ft 0 kts 253°